createdAt,value
2019-05-15T15:20:44.748Z,32.10
2019-05-15T15:23:22.591Z,32.02
2019-05-15T15:26:02.114Z,31.95
2019-05-15T15:28:34.069Z,31.92
2019-05-15T15:31:08.232Z,31.96
2019-05-15T15:33:48.593Z,32.18
2019-05-15T15:36:22.060Z,32.20
2019-05-15T15:39:03.825Z,32.27
2019-05-15T15:41:45.129Z,32.29
2019-05-15T15:44:17.992Z,32.32
2019-05-15T15:46:51.442Z,32.34
2019-05-15T15:49:24.928Z,32.29
2019-05-15T15:52:04.145Z,32.29
2019-05-15T15:54:53.467Z,32.36
2019-05-15T15:57:35.046Z,32.29
2019-05-15T16:00:18.298Z,32.37
2019-05-15T16:05:29.674Z,32.37
2019-05-15T16:08:02.781Z,32.39
2019-05-15T16:10:37.743Z,32.45
2019-05-15T16:13:23.713Z,32.34
2019-05-15T16:15:57.964Z,32.33
2019-05-15T16:18:33.107Z,32.39
2019-05-15T16:21:08.180Z,32.36
2019-05-15T16:23:48.063Z,32.33
2019-05-15T16:26:20.937Z,32.31
2019-05-15T16:28:58.010Z,32.32
2019-05-15T16:31:39.540Z,32.37
2019-05-15T16:34:12.616Z,32.33
2019-05-15T16:36:58.479Z,32.40
2019-05-15T16:39:38.397Z,32.36
2019-05-15T16:42:11.291Z,32.36
2019-05-15T16:44:43.508Z,32.31
2019-05-15T16:47:19.561Z,32.38
2019-05-15T16:49:58.832Z,32.38
2019-05-15T16:52:35.211Z,32.39
2019-05-15T16:55:12.452Z,32.44
2019-05-15T16:57:52.794Z,32.37
2019-05-15T17:00:28.981Z,32.40
2019-05-15T17:03:13.726Z,32.34
2019-05-15T17:05:38.964Z,32.31
2019-05-15T17:08:19.079Z,32.29
2019-05-15T17:10:55.686Z,32.33
2019-05-15T17:13:41.542Z,32.31
2019-05-15T17:16:27.548Z,32.30
2019-05-15T17:19:12.814Z,32.22
2019-05-15T17:21:48.221Z,32.24
2019-05-15T17:24:27.754Z,32.21
2019-05-15T17:27:08.558Z,32.25
2019-05-15T17:29:40.029Z,32.20
2019-05-15T17:32:13.450Z,32.24
2019-05-15T17:34:53.947Z,32.20
2019-05-15T17:37:28.703Z,32.21
2019-05-15T17:40:05.052Z,32.20
2019-05-15T17:42:39.035Z,32.18
2019-05-15T17:45:21.031Z,32.23
2019-05-15T17:47:53.676Z,32.19
2019-05-15T17:50:28.323Z,32.23
2019-05-15T17:53:01.430Z,32.15
2019-05-15T17:55:38.408Z,32.15
2019-05-15T17:58:19.009Z,32.11
2019-05-15T18:00:51.932Z,32.09
2019-05-15T18:03:29.526Z,32.16
2019-05-15T18:06:10.141Z,32.21
2019-05-15T18:08:50.035Z,32.18
2019-05-15T18:11:23.581Z,32.14
2019-05-15T18:13:58.217Z,32.13
2019-05-15T18:16:30.824Z,32.10
2019-05-15T18:19:05.357Z,32.12
2019-05-15T18:21:45.771Z,32.09
2019-05-15T18:24:18.734Z,32.08
2019-05-15T18:26:52.364Z,32.05
2019-05-15T18:29:35.355Z,32.07
2019-05-15T18:32:09.118Z,32.10
2019-05-15T18:34:42.355Z,31.91
2019-05-15T18:37:33.928Z,31.98
2019-05-15T18:40:09.012Z,31.97
2019-05-15T18:42:49.337Z,32.01
2019-05-15T18:45:21.049Z,32.02
2019-05-15T18:47:59.959Z,32.00
2019-05-15T18:50:32.581Z,31.91
2019-05-15T18:53:05.278Z,31.96
2019-05-15T18:55:38.561Z,32.00
2019-05-15T18:58:11.519Z,31.93
2019-05-15T19:00:44.724Z,32.02
2019-05-15T19:03:22.642Z,32.03
2019-05-15T19:05:58.420Z,32.00
2019-05-15T19:08:31.275Z,32.06
2019-05-15T19:11:05.094Z,32.04
2019-05-15T19:13:38.911Z,32.06
2019-05-15T19:16:11.565Z,31.97
2019-05-15T19:18:44.011Z,31.99
2019-05-15T19:21:20.130Z,31.99
2019-05-15T19:23:53.598Z,31.95
2019-05-15T19:26:28.798Z,31.96
2019-05-15T19:29:09.063Z,31.99
2019-05-15T19:31:49.217Z,32.03
2019-05-15T19:37:12.420Z,32.00
2019-05-15T19:39:47.843Z,31.95
2019-05-15T19:42:19.354Z,31.95
2019-05-15T19:44:52.680Z,31.92
2019-05-15T19:47:25.527Z,31.96
2019-05-15T19:50:08.949Z,32.02
2019-05-15T19:52:41.268Z,32.00
2019-05-15T19:55:14.036Z,32.03
2019-05-15T19:57:48.140Z,31.96
2019-05-15T20:00:21.295Z,31.98
2019-05-15T20:02:54.824Z,31.89
2019-05-15T20:05:29.052Z,31.93
2019-05-15T20:08:02.408Z,32.00
2019-05-15T20:10:35.253Z,31.95
2019-05-15T20:13:14.922Z,32.00
2019-05-15T20:15:49.445Z,31.97
2019-05-15T20:18:33.682Z,31.98
2019-05-15T20:21:08.833Z,31.94
2019-05-15T20:23:41.288Z,31.95
2019-05-15T20:26:13.933Z,31.90
2019-05-15T20:28:53.829Z,31.94
2019-05-15T20:31:28.432Z,31.94
2019-05-15T20:34:05.807Z,31.90
2019-05-15T20:36:38.754Z,31.93
2019-05-15T20:39:12.712Z,31.89
2019-05-15T20:41:50.153Z,31.93
